Time;durP1;ratioP1;P1;durP2;ratioP2;P2;SDS_P1;SDS_P2;PMS_P1;PMS_P2;Temp;Humidity;BMP_temperature;BMP_pressure;BME280_temperature;BME280_humidity;BME280_pressure;Samples;Min_cycle;Max_cycle;Signal;HPM_P1;HPM_P2
2022/04/13 00:00:28;;;;;;;5.50;2.30;;;;;;101193.59;;;;107152;1276;64080;-38
2022/04/13 00:03:06;;;;;;;4.50;2.20;;;;;;101192.30;;;;107113;1276;63905;-37
2022/04/13 00:05:33;;;;;;;5.10;2.30;;;;;;101191.95;;;;107141;1277;64024;-37
2022/04/13 00:08:05;;;;;;;4.70;2.10;;;;;;101190.73;;;;107116;1276;63953;-36
2022/04/13 00:10:36;;;;;;;4.60;2.40;;;;;;101191.34;;;;107139;1277;64016;-28
2022/04/13 00:13:04;;;;;;;5.70;3.00;;;;;;101194.51;;;;107148;1276;66036;-28
2022/04/13 00:15:35;;;;;;;5.10;2.60;;;;;;101197.92;;;;107143;1276;64050;-35
2022/04/13 00:18:08;;;;;;;5.40;2.50;;;;;;101199.90;;;;107056;1276;64136;-28
2022/04/13 00:20:36;;;;;;;4.40;2.30;;;;;;101199.02;;;;107043;1276;64373;-28
2022/04/13 00:23:07;;;;;;;4.80;2.60;;;;;;101194.94;;;;107174;1275;64050;-28
2022/04/13 00:25:38;;;;;;;5.50;3.00;;;;;;101196.00;;;;107139;1277;65288;-32
2022/04/13 00:28:07;;;;;;;5.50;2.70;;;;;;101196.09;;;;107097;1276;63921;-27
2022/04/13 00:30:37;;;;;;;5.90;3.30;;;;;;101197.23;;;;107155;1276;64037;-37
2022/04/13 00:33:05;;;;;;;5.00;2.70;;;;;;101200.98;;;;107139;1276;63964;-36
2022/04/13 00:35:37;;;;;;;5.10;3.00;;;;;;101200.88;;;;107132;1276;63936;-27
2022/04/13 00:38:05;;;;;;;5.80;3.00;;;;;;101199.79;;;;107192;1276;64108;-28
2022/04/13 00:40:37;;;;;;;4.90;2.70;;;;;;101199.72;;;;107016;1276;64024;-37
2022/04/13 00:43:08;;;;;;;4.60;2.60;;;;;;101204.16;;;;106987;1277;64171;-38
2022/04/13 00:45:35;;;;;;;5.80;3.00;;;;;;101209.67;;;;107185;1277;64088;-28
2022/04/13 00:48:04;;;;;;;6.30;3.10;;;;;;101211.79;;;;107125;1276;64049;-28
2022/04/13 00:50:34;;;;;;;5.10;2.70;;;;;;101208.17;;;;107150;1276;64174;-36
2022/04/13 00:53:01;;;;;;;5.00;2.70;;;;;;101204.20;;;;106978;1277;64069;-37
2022/04/13 00:55:33;;;;;;;5.70;3.10;;;;;;101208.65;;;;107157;1276;63916;-36
2022/04/13 00:58:01;;;;;;;5.00;2.90;;;;;;101209.77;;;;107114;1276;64037;-37
2022/04/13 01:00:34;;;;;;;5.80;3.10;;;;;;101207.98;;;;107207;1276;64044;-36
2022/04/13 01:03:07;;;;;;;5.70;3.10;;;;;;101207.99;;;;107058;1276;64375;-35
2022/04/13 01:05:39;;;;;;;6.70;3.50;;;;;;101210.77;;;;107123;1276;63947;-37
2022/04/13 01:08:08;;;;;;;6.10;3.30;;;;;;101211.37;;;;107105;1276;63942;-37
2022/04/13 01:10:40;;;;;;;5.50;2.80;;;;;;101210.60;;;;107020;1276;63980;-36
2022/04/13 01:13:08;;;;;;;5.70;3.20;;;;;;101210.84;;;;107187;1276;63884;-36
2022/04/13 01:15:38;;;;;;;5.50;2.90;;;;;;101213.55;;;;107150;1275;64103;-28
2022/04/13 01:18:05;;;;;;;6.90;3.20;;;;;;101214.36;;;;107132;1277;63965;-29
2022/04/13 01:20:39;;;;;;;5.90;2.70;;;;;;101212.28;;;;107155;1276;64053;-28
2022/04/13 01:23:07;;;;;;;5.90;3.20;;;;;;101213.11;;;;107125;1276;63952;-28
2022/04/13 01:25:37;;;;;;;6.00;2.80;;;;;;101212.42;;;;107085;1277;64213;-28
2022/04/13 01:28:07;;;;;;;5.40;3.30;;;;;;101214.05;;;;107148;1276;64068;-28
2022/04/13 01:30:37;;;;;;;7.00;3.10;;;;;;101210.98;;;;107135;1276;64067;-28
2022/04/13 01:33:05;;;;;;;5.70;3.00;;;;;;101212.92;;;;107139;1276;63923;-28
2022/04/13 01:35:35;;;;;;;6.40;3.10;;;;;;101212.66;;;;107114;1276;64053;-38
2022/04/13 01:38:03;;;;;;;5.90;2.90;;;;;;101213.57;;;;107167;1276;63912;-39
2022/04/13 01:40:35;;;;;;;5.60;3.30;;;;;;101213.65;;;;107186;1276;65287;-43
2022/04/13 01:43:10;;;;;;;5.90;3.10;;;;;;101214.52;;;;107152;1276;64130;-37
2022/04/13 01:45:40;;;;;;;5.20;2.90;;;;;;101217.86;;;;107164;1276;64003;-37
2022/04/13 01:48:10;;;;;;;5.90;3.10;;;;;;101218.63;;;;107105;1276;64071;-38
2022/04/13 01:50:41;;;;;;;5.60;3.20;;;;;;101220.44;;;;107159;1276;64080;-27
2022/04/13 01:53:08;;;;;;;5.20;2.70;;;;;;101219.58;;;;107123;1276;65275;-27
2022/04/13 01:55:38;;;;;;;6.10;2.90;;;;;;101218.15;;;;107133;1276;64622;-27
2022/04/13 01:58:06;;;;;;;5.90;3.30;;;;;;101220.98;;;;107140;1276;63949;-28
2022/04/13 02:00:37;;;;;;;6.10;3.50;;;;;;101224.59;;;;107034;1277;64065;-28
2022/04/13 02:03:05;;;;;;;5.10;3.00;;;;;;101229.84;;;;107165;1276;64067;-27
2022/04/13 02:05:35;;;;;;;5.50;3.50;;;;;;101236.23;;;;107145;1276;64062;-45
2022/04/13 02:08:03;;;;;;;5.70;2.80;;;;;;101237.29;;;;107136;1276;63919;-37
2022/04/13 02:10:30;;;;;;;5.50;3.30;;;;;;101237.27;;;;107060;1276;63773;-28
2022/04/13 02:12:58;;;;;;;6.10;3.20;;;;;;101235.16;;;;107125;1277;64075;-28
2022/04/13 02:15:28;;;;;;;6.40;3.70;;;;;;101238.03;;;;107082;1276;65396;-28
2022/04/13 02:17:57;;;;;;;5.30;3.00;;;;;;101237.45;;;;107175;1276;65632;-28
2022/04/13 02:20:28;;;;;;;6.30;3.10;;;;;;101230.98;;;;107136;1276;63929;-37
2022/04/13 02:22:55;;;;;;;5.30;2.70;;;;;;101226.33;;;;107123;1276;63948;-36
2022/04/13 02:25:22;;;;;;;6.20;3.00;;;;;;101226.79;;;;107152;1276;65170;-27
2022/04/13 02:27:49;;;;;;;6.00;3.10;;;;;;101228.27;;;;107146;1276;64031;-28
2022/04/13 02:30:17;;;;;;;6.40;3.40;;;;;;101233.83;;;;107125;1276;65291;-28
2022/04/13 02:32:44;;;;;;;6.70;3.30;;;;;;101240.12;;;;107111;1276;63986;-27
2022/04/13 02:35:13;;;;;;;6.10;3.50;;;;;;101243.57;;;;107129;1276;63958;-26
2022/04/13 02:37:42;;;;;;;6.10;3.70;;;;;;101248.46;;;;107013;1279;64000;-28
2022/04/13 02:40:12;;;;;;;6.10;3.60;;;;;;101253.52;;;;107144;1276;63946;-36
2022/04/13 02:42:39;;;;;;;6.60;3.50;;;;;;101258.30;;;;107169;1276;65095;-36
2022/04/13 02:45:08;;;;;;;5.00;3.30;;;;;;101256.04;;;;107125;1276;64041;-27
2022/04/13 02:47:36;;;;;;;5.70;3.50;;;;;;101251.49;;;;107156;1276;64050;-28
2022/04/13 02:50:06;;;;;;;5.30;3.40;;;;;;101243.46;;;;107161;1276;63953;-28
2022/04/13 02:52:37;;;;;;;6.00;3.30;;;;;;101244.62;;;;107182;1276;64093;-28
2022/04/13 02:55:10;;;;;;;6.00;3.60;;;;;;101246.40;;;;107030;1276;65553;-36
2022/04/13 02:57:37;;;;;;;5.60;3.30;;;;;;101246.84;;;;107156;1276;64062;-36
2022/04/13 03:00:09;;;;;;;5.80;3.30;;;;;;101245.07;;;;107163;1276;64014;-28
2022/04/13 03:02:39;;;;;;;6.40;3.50;;;;;;101239.33;;;;107188;1276;64095;-28
2022/04/13 03:05:08;;;;;;;6.00;3.60;;;;;;101237.17;;;;107175;1276;64010;-36
2022/04/13 03:07:35;;;;;;;6.90;3.50;;;;;;101238.20;;;;107155;1276;64152;-36
2022/04/13 03:10:07;;;;;;;5.70;3.70;;;;;;101243.58;;;;107139;1276;63937;-27
2022/04/13 03:12:37;;;;;;;6.40;3.70;;;;;;101245.04;;;;107155;1276;64028;-28
2022/04/13 03:15:09;;;;;;;7.20;4.00;;;;;;101242.59;;;;107144;1276;63955;-28
2022/04/13 03:17:37;;;;;;;6.40;3.80;;;;;;101241.09;;;;107192;1276;64000;-34
2022/04/13 03:20:08;;;;;;;6.00;3.50;;;;;;101242.66;;;;107147;1276;64844;-28
2022/04/13 03:22:36;;;;;;;5.60;3.30;;;;;;101247.01;;;;107138;1276;64018;-28
2022/04/13 03:25:04;;;;;;;6.60;3.70;;;;;;101250.10;;;;107014;1277;63983;-26
2022/04/13 03:27:31;;;;;;;6.80;3.60;;;;;;101246.86;;;;107010;1277;64000;-27
2022/04/13 03:29:58;;;;;;;6.50;3.80;;;;;;101247.44;;;;107041;1277;63928;-28
2022/04/13 03:32:38;;;;;;;6.30;3.70;;;;;;101246.32;;;;107151;1276;65691;-28
2022/04/13 03:35:08;;;;;;;7.10;3.70;;;;;;101244.59;;;;107140;1276;64018;-37
2022/04/13 03:37:39;;;;;;;6.40;3.80;;;;;;101244.14;;;;107137;1276;64040;-37
2022/04/13 03:40:10;;;;;;;6.30;3.70;;;;;;101242.80;;;;107190;1276;64054;-28
2022/04/13 03:42:42;;;;;;;5.60;3.30;;;;;;101246.63;;;;107172;1276;64168;-27
2022/04/13 03:45:11;;;;;;;7.00;4.10;;;;;;101244.18;;;;107191;1276;66946;-28
2022/04/13 03:47:40;;;;;;;6.60;3.60;;;;;;101241.60;;;;107010;1276;63954;-28
2022/04/13 03:50:09;;;;;;;6.30;4.30;;;;;;101236.71;;;;107162;1276;64088;-28
2022/04/13 03:52:40;;;;;;;6.60;3.70;;;;;;101241.30;;;;107147;1276;63903;-28
2022/04/13 03:55:10;;;;;;;7.80;4.70;;;;;;101248.20;;;;107155;1276;63993;-27
2022/04/13 03:57:41;;;;;;;8.50;4.70;;;;;;101253.09;;;;107160;1276;65122;-27
2022/04/13 04:00:09;;;;;;;5.60;3.60;;;;;;101253.14;;;;107166;1276;61618;-36
2022/04/13 04:02:40;;;;;;;7.40;4.00;;;;;;101254.31;;;;107160;1276;65009;-36
2022/04/13 04:05:08;;;;;;;6.50;4.00;;;;;;101257.70;;;;107148;1276;64108;-36
2022/04/13 04:07:36;;;;;;;6.50;3.90;;;;;;101261.98;;;;107051;1276;64014;-37
2022/04/13 04:10:08;;;;;;;6.80;4.20;;;;;;101264.92;;;;107190;1276;64083;-36
2022/04/13 04:12:42;;;;;;;7.90;4.20;;;;;;101267.24;;;;107074;1276;64029;-36
2022/04/13 04:15:10;;;;;;;6.10;3.70;;;;;;101272.30;;;;106925;1276;334583;-26
2022/04/13 04:17:40;;;;;;;7.10;4.00;;;;;;101272.50;;;;107144;1276;63949;-28
2022/04/13 04:20:09;;;;;;;5.70;3.80;;;;;;101274.48;;;;107157;1276;63951;-36
2022/04/13 04:22:39;;;;;;;6.00;4.00;;;;;;101277.38;;;;107175;1276;65310;-37
2022/04/13 04:25:08;;;;;;;6.70;4.30;;;;;;101281.17;;;;107149;1276;63899;-27
2022/04/13 04:27:39;;;;;;;6.20;3.90;;;;;;101281.52;;;;107040;1277;64037;-27
2022/04/13 04:30:10;;;;;;;6.50;4.20;;;;;;101282.70;;;;107108;1276;64138;-36
2022/04/13 04:32:37;;;;;;;8.00;4.20;;;;;;101290.84;;;;107048;1276;64052;-37
2022/04/13 04:35:09;;;;;;;7.40;4.10;;;;;;101291.35;;;;107133;1276;65825;-28
2022/04/13 04:37:36;;;;;;;6.10;3.40;;;;;;101294.95;;;;107185;1276;64065;-27
2022/04/13 04:40:08;;;;;;;6.30;4.30;;;;;;101294.14;;;;107133;1276;63955;-37
2022/04/13 04:42:49;;;;;;;7.70;4.70;;;;;;101290.27;;;;107145;1276;64032;-37
2022/04/13 04:45:19;;;;;;;6.30;4.00;;;;;;101297.19;;;;107154;1276;64082;-27
2022/04/13 04:47:50;;;;;;;6.80;4.50;;;;;;101302.73;;;;107131;1276;65033;-28
2022/04/13 04:50:20;;;;;;;7.20;4.60;;;;;;101303.80;;;;107167;1276;64145;-28
2022/04/13 04:52:47;;;;;;;7.40;4.30;;;;;;101303.84;;;;107172;1276;63784;-27
2022/04/13 04:55:17;;;;;;;7.90;4.30;;;;;;101301.48;;;;107079;1276;64130;-37
2022/04/13 04:57:46;;;;;;;7.50;4.90;;;;;;101298.86;;;;107061;1276;63965;-36
2022/04/13 05:00:20;;;;;;;7.90;4.80;;;;;;101299.64;;;;107200;1276;65335;-27
2022/04/13 05:02:52;;;;;;;8.90;5.80;;;;;;101298.66;;;;107116;1276;63938;-28
2022/04/13 05:05:22;;;;;;;8.20;4.90;;;;;;101296.86;;;;107149;1276;63952;-37
2022/04/13 05:07:49;;;;;;;9.90;5.00;;;;;;101299.18;;;;107128;1276;63989;-36
2022/04/13 05:10:16;;;;;;;7.90;5.50;;;;;;101292.90;;;;107063;1277;64052;-27
2022/04/13 05:12:48;;;;;;;10.00;6.30;;;;;;101293.21;;;;107139;1276;65203;-27
2022/04/13 05:15:16;;;;;;;8.40;5.80;;;;;;101294.93;;;;107158;1276;64035;-28
2022/04/13 05:17:46;;;;;;;9.10;5.40;;;;;;101293.89;;;;107164;1276;63897;-28
2022/04/13 05:20:14;;;;;;;9.30;5.60;;;;;;101294.45;;;;107146;1276;63929;-37
2022/04/13 05:22:44;;;;;;;9.40;6.00;;;;;;101297.84;;;;107149;1276;64050;-35
2022/04/13 05:25:15;;;;;;;10.30;6.30;;;;;;101291.00;;;;107116;1276;65159;-36
2022/04/13 05:27:45;;;;;;;10.70;6.40;;;;;;101291.27;;;;107050;1276;64066;-37
2022/04/13 05:30:14;;;;;;;9.70;5.70;;;;;;101296.82;;;;106864;1276;63958;-28
2022/04/13 05:32:57;;;;;;;8.70;6.00;;;;;;101295.64;;;;107120;1276;64156;-26
2022/04/13 05:35:26;;;;;;;10.20;5.60;;;;;;101298.12;;;;107027;1276;63941;-29
2022/04/13 05:37:56;;;;;;;8.30;5.90;;;;;;101301.46;;;;107164;1276;63952;-28
2022/04/13 05:40:27;;;;;;;9.80;6.00;;;;;;101304.29;;;;107133;1275;64878;-38
2022/04/13 05:42:56;;;;;;;10.40;6.70;;;;;;101301.08;;;;107128;1276;64761;-34
2022/04/13 05:45:24;;;;;;;10.00;6.10;;;;;;101302.77;;;;107162;1276;64913;-28
2022/04/13 05:47:52;;;;;;;9.50;6.20;;;;;;101299.33;;;;107011;1277;64760;-28
2022/04/13 05:50:19;;;;;;;9.10;6.30;;;;;;101297.26;;;;107133;1276;66478;-36
2022/04/13 05:52:46;;;;;;;8.70;6.20;;;;;;101302.01;;;;107027;1276;64902;-36
2022/04/13 05:55:13;;;;;;;10.40;6.40;;;;;;101302.47;;;;107120;1276;64969;-27
2022/04/13 05:57:43;;;;;;;9.90;6.20;;;;;;101303.80;;;;107131;1276;64826;-29
2022/04/13 06:00:12;;;;;;;9.00;6.10;;;;;;101306.84;;;;107168;1276;64744;-40
2022/04/13 06:02:42;;;;;;;10.10;6.60;;;;;;101306.26;;;;107168;1276;66214;-37
2022/04/13 06:05:10;;;;;;;11.90;6.90;;;;;;101308.70;;;;107134;1276;64717;-37
2022/04/13 06:07:38;;;;;;;10.10;7.00;;;;;;101314.98;;;;107166;1276;64777;-42
2022/04/13 06:10:05;;;;;;;9.40;5.80;;;;;;101313.73;;;;107130;1276;64753;-28
2022/04/13 06:12:33;;;;;;;10.40;6.60;;;;;;101312.48;;;;107166;1276;65205;-27
2022/04/13 06:15:09;;;;;;;11.10;6.70;;;;;;101313.84;;;;107145;1276;65246;-27
2022/04/13 06:17:37;;;;;;;10.10;6.80;;;;;;101312.91;;;;107140;1276;64897;-28
2022/04/13 06:20:08;;;;;;;9.30;6.10;;;;;;101314.27;;;;107141;1276;63875;-27
2022/04/13 06:22:40;;;;;;;10.60;6.60;;;;;;101320.20;;;;107115;1276;64917;-28
2022/04/13 06:25:09;;;;;;;12.90;7.50;;;;;;101322.89;;;;107168;1276;64877;-37
2022/04/13 06:27:37;;;;;;;10.30;6.50;;;;;;101327.73;;;;107165;1276;65783;-37
2022/04/13 06:30:06;;;;;;;11.00;6.70;;;;;;101332.77;;;;107150;1276;64856;-29
2022/04/13 06:32:43;;;;;;;10.70;7.20;;;;;;101335.36;;;;107175;1276;66016;-27
2022/04/13 06:35:15;;;;;;;10.20;6.60;;;;;;101337.38;;;;107132;1276;63590;-36
2022/04/13 06:37:47;;;;;;;11.00;7.20;;;;;;101338.77;;;;107157;1276;65431;-36
2022/04/13 06:40:15;;;;;;;9.20;6.60;;;;;;101340.70;;;;107144;1276;66487;-37
2022/04/13 06:42:45;;;;;;;10.80;7.10;;;;;;101341.81;;;;107162;1276;64751;-37
2022/04/13 06:45:15;;;;;;;10.80;6.30;;;;;;101343.09;;;;107143;1276;64762;-37
2022/04/13 06:47:48;;;;;;;9.50;5.90;;;;;;101345.79;;;;107129;1276;64872;-37
2022/04/13 06:50:15;;;;;;;10.80;6.80;;;;;;101347.67;;;;107159;1276;64886;-38
2022/04/13 06:52:45;;;;;;;9.90;6.40;;;;;;101350.46;;;;107127;1276;64751;-36
2022/04/13 06:55:12;;;;;;;10.10;6.80;;;;;;101355.01;;;;107128;1276;64891;-37
2022/04/13 06:57:43;;;;;;;10.10;7.10;;;;;;101358.45;;;;107116;1276;64893;-37
2022/04/13 07:00:13;;;;;;;10.20;6.80;;;;;;101356.48;;;;107133;1276;64905;-37
2022/04/13 07:02:44;;;;;;;9.00;6.60;;;;;;101358.52;;;;107130;1276;64892;-36
2022/04/13 07:05:11;;;;;;;9.20;6.90;;;;;;101358.00;;;;107178;1276;65247;-27
2022/04/13 07:07:38;;;;;;;11.10;7.20;;;;;;101360.88;;;;107102;1276;64874;-28
2022/04/13 07:10:06;;;;;;;9.70;7.10;;;;;;101357.61;;;;107147;1276;64844;-37
2022/04/13 07:12:38;;;;;;;9.20;6.50;;;;;;101359.25;;;;107130;1276;64757;-39
2022/04/13 07:15:07;;;;;;;10.20;6.70;;;;;;101358.33;;;;107161;1276;63645;-37
2022/04/13 07:17:35;;;;;;;10.70;6.40;;;;;;101358.08;;;;107081;1276;66487;-37
2022/04/13 07:20:06;;;;;;;9.20;6.60;;;;;;101363.38;;;;107159;1276;64860;-44
2022/04/13 07:22:47;;;;;;;10.10;7.00;;;;;;101367.41;;;;107152;1275;64978;-38
2022/04/13 07:25:17;;;;;;;8.70;6.40;;;;;;101368.96;;;;107162;1276;64850;-37
2022/04/13 07:27:45;;;;;;;9.50;6.40;;;;;;101369.31;;;;107065;1277;64952;-38
2022/04/13 07:30:14;;;;;;;9.10;6.50;;;;;;101372.61;;;;107141;1276;65618;-30
2022/04/13 07:32:46;;;;;;;10.30;6.90;;;;;;101376.90;;;;107044;1277;64719;-28
2022/04/13 07:35:14;;;;;;;9.40;6.60;;;;;;101379.67;;;;107029;1277;64735;-42
2022/04/13 07:37:43;;;;;;;9.50;6.60;;;;;;101377.50;;;;107082;1276;64834;-40
2022/04/13 07:40:12;;;;;;;8.80;6.10;;;;;;101376.64;;;;107112;1276;64800;-38
2022/04/13 07:42:40;;;;;;;8.80;6.40;;;;;;101377.66;;;;107165;1276;64864;-39
2022/04/13 07:45:08;;;;;;;9.10;6.10;;;;;;101374.45;;;;107117;1277;64797;-30
2022/04/13 07:47:36;;;;;;;9.30;6.40;;;;;;101372.00;;;;107192;1276;64793;-28
2022/04/13 07:50:04;;;;;;;8.30;5.90;;;;;;101375.73;;;;107096;1276;64899;-36
2022/04/13 07:52:36;;;;;;;10.10;6.10;;;;;;101374.79;;;;107166;1276;64796;-30
2022/04/13 07:55:04;;;;;;;8.80;5.40;;;;;;101366.01;;;;107115;1274;67731;-30
2022/04/13 07:57:31;;;;;;;9.00;5.60;;;;;;101369.66;;;;107174;1277;64871;-30
2022/04/13 07:59:59;;;;;;;8.40;5.90;;;;;;101364.84;;;;107096;1276;64846;-37
2022/04/13 08:02:27;;;;;;;8.30;5.50;;;;;;101370.27;;;;107093;1276;64842;-37
2022/04/13 08:04:57;;;;;;;7.70;5.50;;;;;;101370.80;;;;107146;1276;64786;-29
2022/04/13 08:07:25;;;;;;;9.10;5.70;;;;;;101369.05;;;;107108;1276;66505;-30
2022/04/13 08:09:53;;;;;;;7.80;5.60;;;;;;101369.33;;;;107115;1276;64837;-28
2022/04/13 08:12:20;;;;;;;7.70;5.40;;;;;;101369.58;;;;107113;1274;64889;-29
2022/04/13 08:14:47;;;;;;;8.40;5.10;;;;;;101369.05;;;;107117;1276;64886;-28
2022/04/13 08:17:15;;;;;;;6.90;5.10;;;;;;101368.17;;;;107037;1276;64858;-29
2022/04/13 08:19:44;;;;;;;7.60;4.60;;;;;;101373.55;;;;107088;1276;65018;-39
2022/04/13 08:22:11;;;;;;;8.10;5.30;;;;;;101368.23;;;;107050;1276;64888;-41
2022/04/13 08:24:40;;;;;;;6.70;4.50;;;;;;101366.70;;;;107009;1275;64785;-28
2022/04/13 08:27:10;;;;;;;6.60;4.90;;;;;;101364.80;;;;106984;1276;64888;-29
2022/04/13 08:29:37;;;;;;;8.30;5.20;;;;;;101357.38;;;;107075;1276;65421;-42
2022/04/13 08:32:05;;;;;;;8.00;5.10;;;;;;101357.90;;;;107048;1276;65274;-41
2022/04/13 08:34:32;;;;;;;7.40;4.90;;;;;;101354.94;;;;107081;1276;63870;-30
2022/04/13 08:36:59;;;;;;;7.30;4.80;;;;;;101357.84;;;;107038;1276;64889;-43
2022/04/13 08:39:27;;;;;;;7.60;4.70;;;;;;101354.96;;;;107075;1276;64887;-36
2022/04/13 08:41:58;;;;;;;8.70;4.80;;;;;;101356.33;;;;107133;1276;64771;-37
2022/04/13 08:44:48;;;;;;;6.50;4.10;;;;;;101361.91;;;;107074;1276;67376;-30
2022/04/13 08:47:21;;;;;;;6.60;4.20;;;;;;101356.60;;;;107120;1274;64731;-30
2022/04/13 08:49:50;;;;;;;;;;;;;;101354.66;;;;107165;1276;64776;-40
2022/04/13 08:52:31;;;;;;;7.60;4.40;;;;;;101353.88;;;;107115;1276;64777;-39
2022/04/13 08:55:06;;;;;;;6.30;3.70;;;;;;101352.00;;;;106829;1277;64955;-31
2022/04/13 08:57:47;;;;;;;6.30;3.90;;;;;;101349.68;;;;106884;1277;66196;-37
2022/04/13 09:00:16;;;;;;;6.60;4.20;;;;;;101353.71;;;;107100;1277;64778;-34
2022/04/13 09:02:47;;;;;;;7.20;3.90;;;;;;101349.63;;;;107157;1276;64764;-37
2022/04/13 09:05:23;;;;;;;7.20;4.10;;;;;;101344.27;;;;107136;1276;64751;-38
2022/04/13 09:08:05;;;;;;;7.30;3.90;;;;;;101343.29;;;;107139;1276;64766;-35
2022/04/13 09:10:32;;;;;;;6.00;4.00;;;;;;101352.13;;;;107132;1276;67409;-38
2022/04/13 09:13:00;;;;;;;6.20;3.80;;;;;;101348.63;;;;107113;1276;65465;-39
2022/04/13 09:15:27;;;;;;;6.00;3.90;;;;;;101348.24;;;;107141;1276;64848;-41
2022/04/13 09:17:55;;;;;;;7.10;4.10;;;;;;101345.92;;;;106956;1276;64839;-37
2022/04/13 09:20:23;;;;;;;5.40;3.40;;;;;;101344.36;;;;107143;1277;64885;-42
2022/04/13 09:22:50;;;;;;;6.30;3.50;;;;;;101345.08;;;;107104;1275;64934;-39
2022/04/13 09:25:19;;;;;;;6.40;4.10;;;;;;101339.31;;;;107068;1276;64910;-39
2022/04/13 09:27:48;;;;;;;6.60;3.80;;;;;;101339.52;;;;107153;1276;64770;-28
2022/04/13 09:30:15;;;;;;;7.00;3.90;;;;;;101333.80;;;;107045;1277;64972;-30
2022/04/13 09:32:45;;;;;;;6.80;3.90;;;;;;101332.34;;;;107139;1276;65213;-31
2022/04/13 09:35:19;;;;;;;6.80;3.90;;;;;;101330.07;;;;107095;1276;66107;-34
2022/04/13 09:37:47;;;;;;;7.00;4.30;;;;;;101325.72;;;;107066;1276;64760;-37
2022/04/13 09:40:39;;;;;;;7.30;3.90;;;;;;101324.84;;;;107124;1276;64889;-40
2022/04/13 09:43:21;;;;;;;6.80;4.10;;;;;;101322.87;;;;107134;1276;64773;-36
2022/04/13 09:45:52;;;;;;;7.30;3.60;;;;;;101321.30;;;;107137;1276;64937;-30
2022/04/13 09:48:26;;;;;;;6.00;3.70;;;;;;101322.44;;;;107043;1276;66385;-30
2022/04/13 09:50:56;;;;;;;8.30;3.60;;;;;;101309.92;;;;107108;1276;64873;-30
2022/04/13 09:53:24;;;;;;;5.90;3.70;;;;;;101301.54;;;;107013;1277;64973;-35
2022/04/13 09:55:59;;;;;;;6.00;3.20;;;;;;101298.89;;;;106958;1277;64817;-37
2022/04/13 09:58:30;;;;;;;6.60;3.80;;;;;;101292.01;;;;107140;1276;64763;-30
2022/04/13 10:01:02;;;;;;;6.50;3.90;;;;;;101295.98;;;;107033;1276;65901;-30
2022/04/13 10:03:31;;;;;;;6.60;3.50;;;;;;101298.45;;;;107128;1276;65470;-31
2022/04/13 10:05:59;;;;;;;6.80;3.90;;;;;;101292.66;;;;107029;1277;66015;-30
2022/04/13 10:08:28;;;;;;;5.10;3.30;;;;;;101288.31;;;;107110;1277;64962;-36
2022/04/13 10:11:00;;;;;;;6.60;3.90;;;;;;101286.39;;;;107180;1276;64888;-37
2022/04/13 10:13:40;;;;;;;5.40;3.50;;;;;;101282.89;;;;107143;1276;64759;-33
2022/04/13 10:16:10;;;;;;;6.00;3.50;;;;;;101285.64;;;;107121;1276;64847;-30
2022/04/13 10:19:02;;;;;;;5.30;3.30;;;;;;101282.86;;;;107159;1277;64747;-36
2022/04/13 10:21:35;;;;;;;5.60;3.70;;;;;;101277.52;;;;107106;1276;64756;-37
2022/04/13 10:24:04;;;;;;;5.20;3.30;;;;;;101277.73;;;;107017;1277;64901;-31
2022/04/13 10:26:32;;;;;;;5.10;3.40;;;;;;101277.95;;;;107148;1276;66205;-30
2022/04/13 10:28:59;;;;;;;6.10;3.40;;;;;;101275.64;;;;107144;1276;64735;-43
2022/04/13 10:31:26;;;;;;;5.70;3.70;;;;;;101271.61;;;;107112;1276;64736;-30
2022/04/13 10:33:56;;;;;;;6.00;3.30;;;;;;101273.05;;;;107132;1276;64835;-31
2022/04/13 10:36:23;;;;;;;5.80;3.30;;;;;;101271.59;;;;107142;1276;64778;-29
2022/04/13 10:38:51;;;;;;;6.10;3.30;;;;;;101277.23;;;;107135;1276;64913;-37
2022/04/13 10:41:21;;;;;;;5.60;3.60;;;;;;101272.04;;;;107148;1276;64874;-37
2022/04/13 10:43:50;;;;;;;5.70;3.20;;;;;;101260.50;;;;107117;1276;64886;-30
2022/04/13 10:46:21;;;;;;;5.40;3.30;;;;;;101267.64;;;;107060;1276;64791;-30
2022/04/13 10:48:55;;;;;;;6.00;3.30;;;;;;101264.64;;;;107142;1276;64761;-28
2022/04/13 10:51:40;;;;;;;5.50;3.20;;;;;;101258.38;;;;107012;1277;66234;-31
2022/04/13 10:54:09;;;;;;;4.90;2.90;;;;;;101261.23;;;;107149;1277;64717;-35
2022/04/13 10:56:41;;;;;;;5.80;3.00;;;;;;101260.77;;;;107118;1276;64804;-37
2022/04/13 10:59:32;;;;;;;6.20;3.40;;;;;;101260.64;;;;107103;1276;64958;-30
2022/04/13 11:02:07;;;;;;;5.20;2.60;;;;;;101261.04;;;;107147;1276;64767;-31
2022/04/13 11:04:35;;;;;;;6.10;3.50;;;;;;101251.59;;;;107135;1277;67282;-31
2022/04/13 11:07:03;;;;;;;5.10;3.10;;;;;;101250.60;;;;107133;1276;64852;-29
2022/04/13 11:09:37;;;;;;;6.00;3.00;;;;;;101251.30;;;;107142;1276;64879;-31
2022/04/13 11:12:05;;;;;;;5.10;3.00;;;;;;101261.80;;;;107135;1276;64760;-31
2022/04/13 11:14:46;;;;;;;5.40;3.20;;;;;;101262.80;;;;107096;1277;64872;-35
2022/04/13 11:17:13;;;;;;;5.60;2.80;;;;;;101259.41;;;;107067;1277;67140;-37
2022/04/13 11:19:41;;;;;;;5.60;3.40;;;;;;101257.59;;;;107135;1276;64757;-30
2022/04/13 11:22:10;;;;;;;6.10;3.30;;;;;;101254.21;;;;107130;1276;64907;-33
2022/04/13 11:24:40;;;;;;;7.00;3.20;;;;;;101250.54;;;;107126;1276;64836;-37
2022/04/13 11:27:09;;;;;;;5.00;2.90;;;;;;101249.05;;;;107146;1277;64762;-35
2022/04/13 11:29:42;;;;;;;5.90;3.30;;;;;;101253.31;;;;107152;1277;65895;-36
2022/04/13 11:32:15;;;;;;;6.30;3.40;;;;;;101251.45;;;;107135;1276;64863;-35
2022/04/13 11:34:48;;;;;;;5.20;3.10;;;;;;101253.31;;;;107019;1278;64775;-30
2022/04/13 11:37:23;;;;;;;6.50;2.90;;;;;;101250.02;;;;107138;1277;64798;-29
2022/04/13 11:40:10;;;;;;;4.90;3.00;;;;;;101247.56;;;;107158;1276;65172;-36
2022/04/13 11:42:42;;;;;;;6.50;3.40;;;;;;101247.83;;;;107128;1276;67555;-37
2022/04/13 11:45:16;;;;;;;4.90;2.90;;;;;;101246.51;;;;107110;1277;64762;-44
2022/04/13 11:47:51;;;;;;;4.80;3.00;;;;;;101246.14;;;;107150;1276;64768;-42
2022/04/13 11:50:18;;;;;;;5.40;3.00;;;;;;101244.40;;;;107005;1277;64761;-37
2022/04/13 11:52:50;;;;;;;6.10;3.70;;;;;;101239.02;;;;107138;1276;64853;-37
2022/04/13 11:55:41;;;;;;;6.60;3.60;;;;;;101236.48;;;;107126;1276;64751;-29
2022/04/13 11:58:08;;;;;;;7.10;4.00;;;;;;101235.83;;;;107015;1277;64789;-30
2022/04/13 12:00:59;;;;;;;6.00;3.50;;;;;;101233.66;;;;107120;1276;64981;-37
2022/04/13 12:03:35;;;;;;;5.60;3.70;;;;;;101228.10;;;;107114;1277;64760;-30
2022/04/13 12:06:03;;;;;;;6.80;3.60;;;;;;101225.98;;;;107124;1277;64751;-30
2022/04/13 12:08:48;;;;;;;5.70;3.40;;;;;;101225.15;;;;107054;1276;66669;-39
2022/04/13 12:11:18;;;;;;;5.10;3.10;;;;;;101223.39;;;;107012;1277;64882;-36
2022/04/13 12:13:46;;;;;;;6.80;3.60;;;;;;101219.94;;;;107055;1276;64787;-29
2022/04/13 12:16:40;;;;;;;5.70;3.50;;;;;;101214.23;;;;106668;1276;64957;-29
2022/04/13 12:19:11;;;;;;;5.50;3.20;;;;;;101212.02;;;;107002;1277;64962;-30
2022/04/13 12:21:40;;;;;;;7.80;3.70;;;;;;101211.85;;;;107130;1276;67156;-30
2022/04/13 12:24:10;;;;;;;5.60;3.50;;;;;;101207.42;;;;107134;1276;64760;-28
2022/04/13 12:26:42;;;;;;;6.90;3.60;;;;;;101205.02;;;;107136;1277;64847;-31
2022/04/13 12:29:18;;;;;;;6.40;4.00;;;;;;101200.77;;;;107114;1276;64760;-29
2022/04/13 12:31:53;;;;;;;5.70;3.80;;;;;;101198.60;;;;107157;1277;64745;-28
2022/04/13 12:34:28;;;;;;;6.30;3.40;;;;;;101197.21;;;;107120;1276;67306;-33
2022/04/13 12:37:00;;;;;;;6.70;4.20;;;;;;101192.98;;;;107132;1276;65495;-33
2022/04/13 12:39:33;;;;;;;5.50;3.60;;;;;;101188.86;;;;107099;1276;65057;-36
2022/04/13 12:42:02;;;;;;;7.70;4.70;;;;;;101186.24;;;;107128;1275;64888;-35
2022/04/13 12:44:30;;;;;;;7.70;4.90;;;;;;101182.58;;;;107170;1276;64775;-29
2022/04/13 12:47:08;;;;;;;6.70;4.60;;;;;;101178.59;;;;107131;1275;66496;-30
2022/04/13 12:49:38;;;;;;;6.60;4.80;;;;;;101184.34;;;;107127;1276;64859;-38
2022/04/13 12:52:07;;;;;;;7.30;4.70;;;;;;101178.97;;;;107049;1278;64903;-37
2022/04/13 12:54:40;;;;;;;7.90;4.60;;;;;;101174.39;;;;107164;1276;64742;-31
2022/04/13 12:57:07;;;;;;;9.10;4.70;;;;;;101171.80;;;;107141;1276;64763;-37
2022/04/13 12:59:36;;;;;;;6.20;4.40;;;;;;101173.66;;;;107149;1276;65246;-30
2022/04/13 13:02:04;;;;;;;7.60;4.50;;;;;;101174.21;;;;107126;1276;64821;-30